Hillisburg, Indiana
Current Conditions -  °F | °C
As of 4:35 AM on Saturday 25 Oct 2014 (Local Time) from KFKR Reporting Station
Overcast Overcast  
Wind Chill: 55°   Ceiling: 3500
Heat Index: 55°   Visibility: 7mi
Dew Point: 55°   Wind: 5mph
Humidity: 100%   Direction: 180°S
Pressure: 29.96"   Gusts: NA
Location:  40.29°N, 86.34°W
Report Text: KFKR 250835Z AUTO 18004KT 7SM BKN035 OVC041 13/13 A2996 RMK AO2 T01280128
Loading
Personal Weather Stations






























Interactive Weather Map
Tropical Storm Tracking
New forecast layout! Learn more

10-Day Weather Forecast

Advertisements
Track Severe Weather on mobile